Cusseta, AL (36852)

6:17 PM CST on February 13, 2016 (GMT -0600)
Lake Harding | | Change Station
CLOSE
Current Station
Personal Weather Station
Location: Hamilton, GA
Elevation: 528 ft
Nearby Weather Stations

Elev 528 ft 32.72 °N, 85.12 °W | Updated 2 seconds ago

Clear
Clear
43.2 °F
Feels Like 41 °F
N
3.6
Wind Variable Wind from NNW
Gusts 4.9 mph

Today
High -- | Low -- °F
--% Chance of Precip.
Yesterday
High -- | Low -- °F
Precip. -- in
Pressure 30.46 in
Visibility 10.0 miles
Clouds Clear
Windchill 41 °F
Dew Point 18 °F
Humidity 36%
Rainfall 0.00 in
Snow Depth Not available.
6:26 AM 5:24 PM
Waxing Crescent, 35% visible
METAR KAUO 132356Z AUTO 34006KT 10SM CLR 06/M14 A3037 RMK AO2 SLP313 T00561139 10094 20056 53013
Pressure 30.46 in
Visibility 10.0 miles
Clouds Clear
Windchill 41 °F
Dew Point 18 °F
Humidity 36%
Rainfall 0.00 in
Snow Depth Not available.
6:26 AM 5:24 PM
Waxing Crescent, 35% visible
METAR KAUO 132356Z AUTO 34006KT 10SM CLR 06/M14 A3037 RMK AO2 SLP313 T00561139 10094 20056 53013

10-Day Weather Forecast

Almanac

Astronomy

Feb. 13, 2016 Rise Set
Actual Time
Civil Twilight
Nautical Twilight
Astronomical Twilight
Moon
Length of Visible Light
Length of Day
Tomorrow will be .
, % of the Moon is Illuminated

Today's Extremes

State Highs State Lows

Community

WunderPhotos

Upload Photos

1,892,709 photos uploaded!

WunderBlog® & News

Nearby

Air Quality

  Air Quality AQ Index Pollutant
Not available.

Snow Depth

Station Depth Elevation

Earthquake Activity

City Distance Mag. Time & Date
Minimum magnitude displayed is 2.5.

Coastal Water Temperatures

Place Temperature

Stations

Nearby Weather Stations

Station Location Temp. Windchill Dew Point Humidity Wind Precip. Elev Updated Type
                   

Watches & Warnings

There are currently no watches in effect.